Time;durP1;ratioP1;P1;durP2;ratioP2;P2;SDS_P1;SDS_P2;PMS_P1;PMS_P2;Temp;Humidity;BMP_temperature;BMP_pressure;BME280_temperature;BME280_humidity;BME280_pressure;Samples;Min_cycle;Max_cycle;Signal;HPM_P1;HPM_P2
2023/11/11 00:01:55;;;;;;;1.73;1.63;;;;;;;;;;5113693;28;20496;-60
2023/11/11 00:04:22;;;;;;;6.00;1.80;;;;;;;;;;5113748;28;20467;-60
2023/11/11 00:06:50;;;;;;;3.23;1.60;;;;;;;;;;5113681;28;20445;-60
2023/11/11 00:09:18;;;;;;;2.20;1.83;;;;;;;;;;5113826;28;20533;-60
2023/11/11 00:11:45;;;;;;;1.57;1.47;;;;;;;;;;5113719;28;20506;-60
2023/11/11 00:14:12;;;;;;;1.87;1.60;;;;;;;;;;5113695;28;20442;-60
2023/11/11 00:16:39;;;;;;;2.80;1.50;;;;;;;;;;5113678;28;20441;-59
2023/11/11 00:19:09;;;;;;;1.70;1.60;;;;;;;;;;5113535;28;20442;-60
2023/11/11 00:21:37;;;;;;;1.73;1.63;;;;;;;;;;5113660;28;20564;-60
2023/11/11 00:24:07;;;;;;;1.60;1.50;;;;;;;;;;5113652;28;20445;-60
2023/11/11 00:26:34;;;;;;;2.43;1.60;;;;;;;;;;5113654;28;20808;-60
2023/11/11 00:29:02;;;;;;;3.13;2.03;;;;;;;;;;5113486;28;20879;-60
2023/11/11 00:31:30;;;;;;;1.30;1.20;;;;;;;;;;5113440;28;20477;-59
2023/11/11 00:33:58;;;;;;;2.33;1.43;;;;;;;;;;5113567;28;20446;-59
2023/11/11 00:36:25;;;;;;;1.40;1.30;;;;;;;;;;5113564;28;20529;-59
2023/11/11 00:38:53;;;;;;;1.43;1.33;;;;;;;;;;5113409;28;20445;-60
2023/11/11 00:41:22;;;;;;;1.73;1.63;;;;;;;;;;5113440;28;20472;-59
2023/11/11 00:43:49;;;;;;;1.73;1.43;;;;;;;;;;5113294;28;20473;-60
2023/11/11 00:46:17;;;;;;;2.50;1.63;;;;;;;;;;5113263;28;20541;-60
2023/11/11 00:48:44;;;;;;;1.93;1.80;;;;;;;;;;5113419;28;20448;-60
2023/11/11 00:51:11;;;;;;;4.80;2.07;;;;;;;;;;5113324;28;20445;-60
2023/11/11 00:53:38;;;;;;;2.60;1.90;;;;;;;;;;5113309;28;20442;-60
2023/11/11 00:56:05;;;;;;;1.60;1.50;;;;;;;;;;5113322;28;20876;-60
2023/11/11 00:58:34;;;;;;;2.07;1.87;;;;;;;;;;5113172;28;20864;-60
2023/11/11 01:01:01;;;;;;;2.73;2.03;;;;;;;;;;5113429;28;20913;-60
2023/11/11 01:03:27;;;;;;;3.10;1.37;;;;;;;;;;5113214;28;20481;-60
2023/11/11 01:05:54;;;;;;;3.40;1.97;;;;;;;;;;5113185;28;20441;-60
2023/11/11 01:08:21;;;;;;;2.53;1.80;;;;;;;;;;5113192;28;20540;-60
2023/11/11 01:10:48;;;;;;;2.20;1.97;;;;;;;;;;5113334;28;20532;-60
2023/11/11 01:13:15;;;;;;;1.90;1.80;;;;;;;;;;5112844;28;20445;-60
2023/11/11 01:15:45;;;;;;;1.80;1.70;;;;;;;;;;5113151;28;20529;-60
2023/11/11 01:18:12;;;;;;;3.40;1.60;;;;;;;;;;5113197;28;20449;-60
2023/11/11 01:20:39;;;;;;;1.73;1.53;;;;;;;;;;5113009;28;20445;-59
2023/11/11 01:23:07;;;;;;;2.33;1.60;;;;;;;;;;5114241;28;20488;-60
2023/11/11 01:25:34;;;;;;;1.63;1.50;;;;;;;;;;5116793;28;20476;-60
2023/11/11 01:28:01;;;;;;;1.90;1.73;;;;;;;;;;5116632;28;20474;-59
2023/11/11 01:30:27;;;;;;;1.77;1.63;;;;;;;;;;5116854;28;20504;-59
2023/11/11 01:32:56;;;;;;;2.83;1.73;;;;;;;;;;5116535;28;20509;-60
2023/11/11 01:35:23;;;;;;;2.20;1.83;;;;;;;;;;5116670;28;20445;-59
2023/11/11 01:37:51;;;;;;;2.30;2.10;;;;;;;;;;5116518;28;20801;-59
2023/11/11 01:40:18;;;;;;;1.90;1.80;;;;;;;;;;5116401;28;20437;-60
2023/11/11 01:42:45;;;;;;;3.70;2.20;;;;;;;;;;5116488;28;20998;-60
2023/11/11 01:45:12;;;;;;;2.40;2.20;;;;;;;;;;5116635;28;20626;-60
2023/11/11 01:47:39;;;;;;;1.73;1.63;;;;;;;;;;5116367;28;20441;-60
2023/11/11 01:50:09;;;;;;;1.97;1.80;;;;;;;;;;5116382;28;20556;-59
2023/11/11 01:52:36;;;;;;;2.43;2.10;;;;;;;;;;5116223;28;20449;-60
2023/11/11 01:55:05;;;;;;;2.00;1.80;;;;;;;;;;5116156;28;20969;-60
2023/11/11 01:57:32;;;;;;;2.00;1.80;;;;;;;;;;5116290;28;20495;-60
2023/11/11 02:00:05;;;;;;;1.87;1.70;;;;;;;;;;5116275;28;20495;-60
2023/11/11 02:02:32;;;;;;;2.17;1.80;;;;;;;;;;5116345;28;20572;-60
2023/11/11 02:04:59;;;;;;;2.03;1.93;;;;;;;;;;5116045;28;20528;-60
2023/11/11 02:07:27;;;;;;;2.00;1.83;;;;;;;;;;5115881;28;20959;-60
2023/11/11 02:09:54;;;;;;;1.97;1.73;;;;;;;;;;5116079;28;20441;-60
2023/11/11 02:12:21;;;;;;;2.30;1.63;;;;;;;;;;5116003;28;20446;-60
2023/11/11 02:14:48;;;;;;;2.20;2.00;;;;;;;;;;5115951;28;20536;-60
2023/11/11 02:17:15;;;;;;;2.23;2.03;;;;;;;;;;5115945;28;20442;-60
2023/11/11 02:19:42;;;;;;;2.47;2.37;;;;;;;;;;5115712;28;20885;-60
2023/11/11 02:22:10;;;;;;;2.70;2.10;;;;;;;;;;5115536;28;20476;-60
2023/11/11 02:24:39;;;;;;;3.97;2.00;;;;;;;;;;5115821;28;20452;-60
2023/11/11 02:27:06;;;;;;;3.00;1.83;;;;;;;;;;5115719;28;20452;-59
2023/11/11 02:29:33;;;;;;;2.50;1.87;;;;;;;;;;5115566;28;20446;-59
2023/11/11 02:32:00;;;;;;;1.80;1.70;;;;;;;;;;5115550;28;20442;-60
2023/11/11 02:34:27;;;;;;;2.00;1.90;;;;;;;;;;5114278;28;20450;-60
2023/11/11 02:36:55;;;;;;;1.97;1.87;;;;;;;;;;5115661;28;20474;-59
2023/11/11 02:39:22;;;;;;;2.10;1.60;;;;;;;;;;5115244;28;20477;-60
2023/11/11 02:41:51;;;;;;;3.30;2.20;;;;;;;;;;5115514;28;20502;-59
2023/11/11 02:44:17;;;;;;;2.40;2.20;;;;;;;;;;5115285;28;20560;-59
2023/11/11 02:46:44;;;;;;;1.93;1.83;;;;;;;;;;5115263;28;20873;-60
2023/11/11 02:49:11;;;;;;;2.10;2.00;;;;;;;;;;5115068;28;20849;-60
2023/11/11 02:51:38;;;;;;;3.03;2.83;;;;;;;;;;5115059;28;20528;-59
2023/11/11 02:54:06;;;;;;;6.23;2.67;;;;;;;;;;5115455;28;20528;-59
2023/11/11 02:56:33;;;;;;;2.50;1.90;;;;;;;;;;5115109;28;20640;-60
2023/11/11 02:59:01;;;;;;;2.07;1.87;;;;;;;;;;5115010;28;20444;-60
2023/11/11 03:01:35;;;;;;;2.83;2.63;;;;;;;;;;5114907;28;20469;-59
2023/11/11 03:04:02;;;;;;;2.70;2.50;;;;;;;;;;5114738;28;20487;-60
2023/11/11 03:06:29;;;;;;;2.67;2.00;;;;;;;;;;5114958;28;20533;-59
2023/11/11 03:08:56;;;;;;;4.30;2.37;;;;;;;;;;5114754;28;20442;-60
2023/11/11 03:11:24;;;;;;;4.50;2.37;;;;;;;;;;5114767;28;20438;-60
2023/11/11 03:13:51;;;;;;;2.90;2.70;;;;;;;;;;5114602;28;20437;-59
2023/11/11 03:16:19;;;;;;;2.03;1.83;;;;;;;;;;5114515;28;20929;-60
2023/11/11 03:18:46;;;;;;;2.87;2.07;;;;;;;;;;5114729;28;20442;-60
2023/11/11 03:21:20;;;;;;;2.17;1.60;;;;;;;;;;5114524;28;20533;-60
2023/11/11 03:23:47;;;;;;;2.40;2.00;;;;;;;;;;5114511;28;20488;-60
2023/11/11 03:26:14;;;;;;;3.30;2.30;;;;;;;;;;5114430;28;20446;-60
2023/11/11 03:28:41;;;;;;;2.43;2.23;;;;;;;;;;5114539;28;20441;-60
2023/11/11 03:31:08;;;;;;;2.10;2.00;;;;;;;;;;5114557;28;20441;-60
2023/11/11 03:33:36;;;;;;;2.40;2.20;;;;;;;;;;5114384;28;20552;-60
2023/11/11 03:36:03;;;;;;;9.03;2.73;;;;;;;;;;5114277;28;20442;-59
2023/11/11 03:38:30;;;;;;;2.90;2.60;;;;;;;;;;5114263;28;20533;-60
2023/11/11 03:40:57;;;;;;;4.13;2.80;;;;;;;;;;5114201;28;20495;-59
2023/11/11 03:43:24;;;;;;;2.43;2.23;;;;;;;;;;5113802;28;20485;-59
2023/11/11 03:45:51;;;;;;;3.00;2.70;;;;;;;;;;5113979;28;20467;-59
2023/11/11 03:48:18;;;;;;;2.23;2.07;;;;;;;;;;5114169;28;20448;-59
2023/11/11 03:50:46;;;;;;;2.70;2.50;;;;;;;;;;5114177;28;20437;-60
2023/11/11 03:53:13;;;;;;;3.03;2.53;;;;;;;;;;5114017;28;20440;-59
2023/11/11 03:55:40;;;;;;;3.57;2.63;;;;;;;;;;5114034;28;20871;-60
2023/11/11 03:58:07;;;;;;;3.25;2.95;;;;;;;;;;5113936;28;20484;-59
2023/11/11 04:00:34;;;;;;;4.57;3.07;;;;;;;;;;5114021;28;20274;-59
2023/11/11 04:03:01;;;;;;;3.63;3.30;;;;;;;;;;5113881;28;20485;-59
2023/11/11 04:05:28;;;;;;;3.10;2.90;;;;;;;;;;5113885;28;20537;-59
2023/11/11 04:07:57;;;;;;;3.40;3.10;;;;;;;;;;5113768;28;20468;-60
2023/11/11 04:10:24;;;;;;;3.47;3.17;;;;;;;;;;5113565;28;20453;-60
2023/11/11 04:12:51;;;;;;;4.97;3.53;;;;;;;;;;5113966;28;20908;-60
2023/11/11 04:15:19;;;;;;;4.22;3.83;;;;;;;;;;5114038;28;20274;-60
2023/11/11 04:17:47;;;;;;;4.40;3.60;;;;;;;;;;5113638;28;20219;-60
2023/11/11 04:20:14;;;;;;;2.70;2.50;;;;;;;;;;5113606;28;20447;-60
2023/11/11 04:22:42;;;;;;;5.30;2.60;;;;;;;;;;5113490;28;20214;-60
2023/11/11 04:25:11;;;;;;;2.80;2.60;;;;;;;;;;5113544;28;20484;-59
2023/11/11 04:27:39;;;;;;;4.77;3.37;;;;;;;;;;5113686;28;20809;-59
2023/11/11 04:30:06;;;;;;;4.70;4.07;;;;;;;;;;5113551;28;20533;-59
2023/11/11 04:32:33;;;;;;;4.18;3.67;;;;;;;;;;5113471;28;20494;-59
2023/11/11 04:35:01;;;;;;;3.63;3.33;;;;;;;;;;5113435;28;20278;-59
2023/11/11 04:37:27;;;;;;;3.22;2.45;;;;;;;;;;5113355;28;20453;-59
2023/11/11 04:39:58;;;;;;;4.13;3.03;;;;;;;;;;5113334;28;20223;-59
2023/11/11 04:42:26;;;;;;;5.13;2.77;;;;;;;;;;5113116;28;20932;-59
2023/11/11 04:44:53;;;;;;;2.60;2.40;;;;;;;;;;5113342;28;20882;-59
2023/11/11 04:47:20;;;;;;;2.60;2.40;;;;;;;;;;5113410;28;20537;-59
2023/11/11 04:49:48;;;;;;;3.58;2.55;;;;;;;;;;5113210;28;20442;-59
2023/11/11 04:52:15;;;;;;;2.35;2.15;;;;;;;;;;5113103;28;20639;-59
2023/11/11 04:54:42;;;;;;;4.33;2.43;;;;;;;;;;5113172;28;20662;-59
2023/11/11 04:57:09;;;;;;;3.10;2.40;;;;;;;;;;5113269;28;20441;-60
2023/11/11 04:59:37;;;;;;;2.27;2.17;;;;;;;;;;5117180;28;20532;-59
2023/11/11 05:02:04;;;;;;;2.97;2.60;;;;;;;;;;5117259;28;20532;-59
2023/11/11 05:04:31;;;;;;;2.40;2.20;;;;;;;;;;5117063;28;20917;-59
2023/11/11 05:06:58;;;;;;;2.33;2.13;;;;;;;;;;5117409;28;20522;-59
2023/11/11 05:09:26;;;;;;;2.10;2.00;;;;;;;;;;5117249;28;20453;-60
2023/11/11 05:11:54;;;;;;;2.53;2.33;;;;;;;;;;5117160;28;20471;-59
2023/11/11 05:14:21;;;;;;;2.03;1.80;;;;;;;;;;5117073;28;20449;-60
2023/11/11 05:16:52;;;;;;;2.77;2.50;;;;;;;;;;5116883;28;20449;-60
2023/11/11 05:19:20;;;;;;;3.07;2.77;;;;;;;;;;5116931;28;20491;-60
2023/11/11 05:21:47;;;;;;;2.00;1.80;;;;;;;;;;5116973;28;20860;-60
2023/11/11 05:24:14;;;;;;;2.50;1.93;;;;;;;;;;5116874;28;20912;-60
2023/11/11 05:26:42;;;;;;;2.30;2.20;;;;;;;;;;5116824;28;20446;-59
2023/11/11 05:29:09;;;;;;;2.30;2.10;;;;;;;;;;5117001;28;20540;-59
2023/11/11 05:31:36;;;;;;;4.80;2.47;;;;;;;;;;5116570;28;20449;-60
2023/11/11 05:34:04;;;;;;;3.17;2.00;;;;;;;;;;5116816;28;20529;-59
2023/11/11 05:36:33;;;;;;;2.43;2.23;;;;;;;;;;5116722;28;20469;-59
2023/11/11 05:39:00;;;;;;;2.30;2.00;;;;;;;;;;5116593;28;20442;-59
2023/11/11 05:41:29;;;;;;;3.20;2.00;;;;;;;;;;5116976;28;20441;-59
2023/11/11 05:43:56;;;;;;;3.80;2.50;;;;;;;;;;5116125;28;20481;-59
2023/11/11 05:46:24;;;;;;;3.80;2.50;;;;;;;;;;5116186;28;20905;-59
2023/11/11 05:48:51;;;;;;;3.07;2.40;;;;;;;;;;5116516;28;20445;-59
2023/11/11 05:51:19;;;;;;;2.90;2.70;;;;;;;;;;5116375;28;20853;-59
2023/11/11 05:53:46;;;;;;;3.03;2.73;;;;;;;;;;5116259;28;20437;-59
2023/11/11 05:56:15;;;;;;;2.00;1.90;;;;;;;;;;5116214;28;20777;-59
2023/11/11 05:58:42;;;;;;;2.60;2.23;;;;;;;;;;5116071;28;20499;-59
2023/11/11 06:01:09;;;;;;;2.70;2.20;;;;;;;;;;5116294;28;20537;-59
2023/11/11 06:03:37;;;;;;;2.17;1.73;;;;;;;;;;5116114;28;20477;-59
2023/11/11 06:06:05;;;;;;;2.33;2.13;;;;;;;;;;5116016;28;20457;-59
2023/11/11 06:08:33;;;;;;;2.60;2.00;;;;;;;;;;5115761;28;20504;-59
2023/11/11 06:11:01;;;;;;;4.13;2.60;;;;;;;;;;5115882;28;20536;-59
2023/11/11 06:13:29;;;;;;;5.20;1.80;;;;;;;;;;5115807;28;20200;-59
2023/11/11 06:15:56;;;;;;;3.20;2.50;;;;;;;;;;5116289;28;20437;-59
2023/11/11 06:18:23;;;;;;;3.57;2.37;;;;;;;;;;5115935;28;20450;-59
2023/11/11 06:20:50;;;;;;;2.33;2.20;;;;;;;;;;5115782;28;20442;-59
2023/11/11 06:23:17;;;;;;;4.07;3.37;;;;;;;;;;5115626;28;20557;-59
2023/11/11 06:25:45;;;;;;;2.10;1.90;;;;;;;;;;5115536;28;20473;-59
2023/11/11 06:28:12;;;;;;;2.47;2.27;;;;;;;;;;5115507;28;20540;-59
2023/11/11 06:30:39;;;;;;;3.30;1.87;;;;;;;;;;5115493;28;21036;-59
2023/11/11 06:33:06;;;;;;;3.83;2.20;;;;;;;;;;5115421;28;20479;-59
2023/11/11 06:35:34;;;;;;;2.60;2.30;;;;;;;;;;5115827;28;20856;-59
2023/11/11 06:38:01;;;;;;;5.17;2.47;;;;;;;;;;5115369;28;20502;-59
2023/11/11 06:40:30;;;;;;;3.00;2.17;;;;;;;;;;5115235;28;20474;-59
2023/11/11 06:42:58;;;;;;;2.50;2.10;;;;;;;;;;5115662;28;20442;-59
2023/11/11 06:45:25;;;;;;;2.77;2.37;;;;;;;;;;5115035;28;20561;-59
2023/11/11 06:47:52;;;;;;;4.50;2.20;;;;;;;;;;5115543;28;20473;-59
2023/11/11 06:50:19;;;;;;;2.87;2.57;;;;;;;;;;5115110;28;20437;-59
2023/11/11 06:52:46;;;;;;;3.00;1.87;;;;;;;;;;5115063;28;20495;-60
2023/11/11 06:55:13;;;;;;;4.33;2.53;;;;;;;;;;5115257;28;20877;-59
2023/11/11 06:57:41;;;;;;;4.60;2.27;;;;;;;;;;5115160;28;20540;-59
2023/11/11 07:00:10;;;;;;;2.80;2.10;;;;;;;;;;5115104;28;20437;-59
2023/11/11 07:02:38;;;;;;;1.50;1.40;;;;;;;;;;5114864;28;20504;-59
2023/11/11 07:05:09;;;;;;;3.83;1.97;;;;;;;;;;5114670;28;20489;-59
2023/11/11 07:07:37;;;;;;;6.50;2.60;;;;;;;;;;5114666;28;20445;-60
2023/11/11 07:10:05;;;;;;;5.47;2.17;;;;;;;;;;5114812;28;20442;-59
2023/11/11 07:12:33;;;;;;;1.97;1.87;;;;;;;;;;5114747;28;20449;-59
2023/11/11 07:15:00;;;;;;;6.03;2.43;;;;;;;;;;5114695;28;20453;-59
2023/11/11 07:17:29;;;;;;;5.63;2.20;;;;;;;;;;5114567;28;20528;-59
2023/11/11 07:19:57;;;;;;;5.47;2.40;;;;;;;;;;5114108;28;20442;-59
2023/11/11 07:22:24;;;;;;;5.13;3.07;;;;;;;;;;5114280;28;20437;-59
2023/11/11 07:24:51;;;;;;;4.37;3.40;;;;;;;;;;5114734;28;20481;-59
2023/11/11 07:27:19;;;;;;;6.77;3.57;;;;;;;;;;5114509;28;20450;-60
2023/11/11 07:29:46;;;;;;;4.07;3.70;;;;;;;;;;5114359;28;20524;-59
2023/11/11 07:32:13;;;;;;;4.43;3.83;;;;;;;;;;5114369;28;20442;-59
2023/11/11 07:34:43;;;;;;;5.80;4.30;;;;;;;;;;5114198;28;20801;-60
2023/11/11 07:37:11;;;;;;;5.03;3.67;;;;;;;;;;5114467;28;20489;-59
2023/11/11 07:39:40;;;;;;;4.00;3.47;;;;;;;;;;5114249;28;20438;-59
2023/11/11 07:42:08;;;;;;;4.33;3.37;;;;;;;;;;5114094;28;20477;-59
2023/11/11 07:44:35;;;;;;;5.43;3.07;;;;;;;;;;5113588;28;20496;-59
2023/11/11 07:47:06;;;;;;;6.30;3.87;;;;;;;;;;5113246;28;20446;-60
2023/11/11 07:49:33;;;;;;;3.60;2.87;;;;;;;;;;5113423;28;20449;-59
2023/11/11 07:52:02;;;;;;;3.70;2.50;;;;;;;;;;5113243;28;20528;-59
2023/11/11 07:54:29;;;;;;;2.97;2.77;;;;;;;;;;5113191;28;20499;-59
2023/11/11 07:56:57;;;;;;;4.50;2.60;;;;;;;;;;5113145;28;20474;-60
2023/11/11 07:59:24;;;;;;;3.10;2.30;;;;;;;;;;5113045;28;20438;-60
2023/11/11 08:01:51;;;;;;;6.23;2.90;;;;;;;;;;5112993;28;20452;-60
2023/11/11 08:04:18;;;;;;;2.50;2.20;;;;;;;;;;5113005;28;20564;-60
2023/11/11 08:06:45;;;;;;;2.30;2.20;;;;;;;;;;5113079;28;21004;-59
2023/11/11 08:09:16;;;;;;;4.83;2.50;;;;;;;;;;5113022;28;20442;-59
2023/11/11 08:11:43;;;;;;;1.80;1.70;;;;;;;;;;5112985;28;20448;-59
2023/11/11 08:14:10;;;;;;;7.67;3.43;;;;;;;;;;5112852;28;20445;-59
2023/11/11 08:16:37;;;;;;;6.77;2.27;;;;;;;;;;5113081;28;20442;-59
2023/11/11 08:19:05;;;;;;;2.33;2.13;;;;;;;;;;5112908;28;20442;-60
2023/11/11 08:21:33;;;;;;;3.60;1.97;;;;;;;;;;5112753;28;20441;-59
2023/11/11 08:23:59;;;;;;;2.00;1.80;;;;;;;;;;5112531;28;21049;-59
2023/11/11 08:26:28;;;;;;;2.20;2.00;;;;;;;;;;5112612;28;20441;-59
2023/11/11 08:28:55;;;;;;;2.80;1.60;;;;;;;;;;5112566;28;20456;-59
2023/11/11 08:31:22;;;;;;;3.17;2.00;;;;;;;;;;5112576;28;20444;-59
2023/11/11 08:33:49;;;;;;;2.30;2.00;;;;;;;;;;5111614;28;20977;-59
2023/11/11 08:36:16;;;;;;;2.93;2.13;;;;;;;;;;5112574;28;20525;-59
2023/11/11 08:38:44;;;;;;;4.77;2.30;;;;;;;;;;5112473;28;20442;-59
2023/11/11 08:41:12;;;;;;;1.97;1.60;;;;;;;;;;5112474;28;20503;-60
2023/11/11 08:43:40;;;;;;;2.47;2.27;;;;;;;;;;5077754;28;984400;-59
2023/11/11 08:46:10;;;;;;;3.10;1.70;;;;;;;;;;5113267;28;20199;-60
2023/11/11 08:48:40;;;;;;;7.37;2.37;;;;;;;;;;5113325;28;20442;-59
2023/11/11 08:51:07;;;;;;;5.40;2.60;;;;;;;;;;5113213;28;20446;-59
2023/11/11 08:53:34;;;;;;;2.37;1.50;;;;;;;;;;5113221;28;20438;-59
2023/11/11 08:56:01;;;;;;;3.00;1.60;;;;;;;;;;5113118;28;20444;-59
2023/11/11 08:58:28;;;;;;;3.87;2.47;;;;;;;;;;5113358;28;20467;-59
2023/11/11 09:00:56;;;;;;;5.33;2.87;;;;;;;;;;5113174;28;20445;-59
2023/11/11 09:03:23;;;;;;;5.80;1.87;;;;;;;;;;5113156;28;20450;-59
2023/11/11 09:05:50;;;;;;;3.97;2.00;;;;;;;;;;5113057;28;20481;-59
2023/11/11 09:08:17;;;;;;;3.97;2.40;;;;;;;;;;5112985;28;20450;-59
2023/11/11 09:10:44;;;;;;;3.40;2.23;;;;;;;;;;5113268;28;20481;-59
2023/11/11 09:13:11;;;;;;;2.83;2.53;;;;;;;;;;5113103;28;20447;-59
2023/11/11 09:15:38;;;;;;;3.97;2.20;;;;;;;;;;5113062;28;20446;-59
2023/11/11 09:18:07;;;;;;;2.70;2.50;;;;;;;;;;5113026;28;20444;-59
2023/11/11 09:20:34;;;;;;;3.57;2.50;;;;;;;;;;5112964;28;20831;-59
2023/11/11 09:23:01;;;;;;;2.57;1.90;;;;;;;;;;5112948;28;20948;-59
2023/11/11 09:25:29;;;;;;;2.93;2.10;;;;;;;;;;5112983;28;20572;-59
2023/11/11 09:27:57;;;;;;;2.73;2.00;;;;;;;;;;5112976;28;20940;-59
2023/11/11 09:30:24;;;;;;;2.20;1.80;;;;;;;;;;5112937;28;20448;-59
2023/11/11 09:32:53;;;;;;;2.90;2.23;;;;;;;;;;5112808;28;20443;-59
2023/11/11 09:35:21;;;;;;;2.63;1.70;;;;;;;;;;5113195;28;20454;-59
2023/11/11 09:37:49;;;;;;;2.03;1.93;;;;;;;;;;5112947;28;20441;-59
2023/11/11 09:40:16;;;;;;;6.30;2.57;;;;;;;;;;5112919;28;20787;-59
2023/11/11 09:42:43;;;;;;;2.80;2.27;;;;;;;;;;5112953;28;20476;-59
2023/11/11 09:45:13;;;;;;;4.67;2.20;;;;;;;;;;5115415;28;20485;-59
2023/11/11 09:47:41;;;;;;;5.97;2.10;;;;;;;;;;5116338;28;20451;-59
2023/11/11 09:50:10;;;;;;;3.50;2.03;;;;;;;;;;5116278;28;20878;-59
2023/11/11 09:52:38;;;;;;;2.27;1.93;;;;;;;;;;5116492;28;20446;-59
2023/11/11 09:55:07;;;;;;;2.30;1.73;;;;;;;;;;5116332;28;20541;-59
2023/11/11 09:57:35;;;;;;;2.87;2.50;;;;;;;;;;5116285;28;20940;-59
2023/11/11 10:00:02;;;;;;;4.17;2.53;;;;;;;;;;5115992;28;20879;-59
2023/11/11 10:02:30;;;;;;;2.53;1.97;;;;;;;;;;5115884;28;20438;-59
2023/11/11 10:04:57;;;;;;;2.17;2.03;;;;;;;;;;5116114;28;20473;-59
2023/11/11 10:07:24;;;;;;;4.47;2.23;;;;;;;;;;5116067;28;20446;-60
2023/11/11 10:09:52;;;;;;;2.30;2.20;;;;;;;;;;5116325;28;20437;-59
2023/11/11 10:12:19;;;;;;;3.27;2.40;;;;;;;;;;5115823;28;20532;-59
2023/11/11 10:14:46;;;;;;;3.73;2.13;;;;;;;;;;5115772;28;20533;-59
2023/11/11 10:17:14;;;;;;;4.10;2.40;;;;;;;;;;5115683;28;20447;-59
2023/11/11 10:19:41;;;;;;;3.97;2.13;;;;;;;;;;5115633;28;20448;-59
2023/11/11 10:22:08;;;;;;;2.30;2.10;;;;;;;;;;5115800;28;20446;-59
2023/11/11 10:24:35;;;;;;;2.93;2.13;;;;;;;;;;5115594;28;20493;-59
2023/11/11 10:27:04;;;;;;;2.57;2.47;;;;;;;;;;5115544;28;20442;-59
2023/11/11 10:29:35;;;;;;;3.13;1.87;;;;;;;;;;5115336;28;20457;-59
2023/11/11 10:32:08;;;;;;;3.60;2.10;;;;;;;;;;5115730;28;20548;-59
2023/11/11 10:34:36;;;;;;;3.47;1.80;;;;;;;;;;5115609;28;20454;-59
2023/11/11 10:37:05;;;;;;;2.83;1.70;;;;;;;;;;5115786;28;20481;-59
2023/11/11 10:39:34;;;;;;;3.00;2.60;;;;;;;;;;5115309;28;20449;-59
2023/11/11 10:42:02;;;;;;;3.20;1.97;;;;;;;;;;5115120;28;20805;-59
2023/11/11 10:44:32;;;;;;;2.43;1.73;;;;;;;;;;5115107;28;20553;-59
2023/11/11 10:46:59;;;;;;;3.13;2.17;;;;;;;;;;5115268;28;20472;-59
2023/11/11 10:49:27;;;;;;;1.70;1.60;;;;;;;;;;5115336;28;20719;-59
2023/11/11 10:51:54;;;;;;;3.53;2.20;;;;;;;;;;5115118;28;20441;-59
2023/11/11 10:54:22;;;;;;;2.00;1.90;;;;;;;;;;5115107;28;20481;-59
2023/11/11 10:56:49;;;;;;;5.37;2.60;;;;;;;;;;5114079;28;20955;-59
2023/11/11 10:59:16;;;;;;;3.20;2.50;;;;;;;;;;5115194;28;20533;-59
2023/11/11 11:01:45;;;;;;;2.50;2.30;;;;;;;;;;5115033;28;20434;-59
2023/11/11 11:04:12;;;;;;;3.37;2.63;;;;;;;;;;5114987;28;20940;-59
2023/11/11 11:06:42;;;;;;;1.70;1.60;;;;;;;;;;5114898;28;20509;-59
2023/11/11 11:09:15;;;;;;;3.17;2.17;;;;;;;;;;5114668;28;20873;-59
2023/11/11 11:11:47;;;;;;;2.53;2.23;;;;;;;;;;5115045;28;20452;-59
2023/11/11 11:14:17;;;;;;;4.70;2.10;;;;;;;;;;5114971;28;20528;-59
2023/11/11 11:16:45;;;;;;;3.47;2.03;;;;;;;;;;5114824;28;20449;-65
2023/11/11 11:19:15;;;;;;;2.00;1.90;;;;;;;;;;5114636;28;20446;-60
2023/11/11 11:21:42;;;;;;;3.30;3.00;;;;;;;;;;5114329;28;20449;-60
2023/11/11 11:24:09;;;;;;;2.43;2.23;;;;;;;;;;5114292;28;20936;-59
2023/11/11 11:26:36;;;;;;;2.73;2.30;;;;;;;;;;5114493;28;20481;-59
2023/11/11 11:29:14;;;;;;;2.80;2.40;;;;;;;;;;5114381;28;20447;-60
2023/11/11 11:32:00;;;;;;;4.97;2.90;;;;;;;;;;5114342;28;20442;-59
2023/11/11 11:34:28;;;;;;;3.47;2.30;;;;;;;;;;5114500;28;20831;-59
2023/11/11 11:36:56;;;;;;;3.57;2.87;;;;;;;;;;5114431;28;20448;-59
2023/11/11 11:39:29;;;;;;;5.33;2.90;;;;;;;;;;5114122;28;20438;-60
2023/11/11 11:41:57;;;;;;;2.30;2.10;;;;;;;;;;5114107;28;20433;-59
2023/11/11 11:44:25;;;;;;;4.17;2.53;;;;;;;;;;5114187;28;20473;-60
2023/11/11 11:46:52;;;;;;;3.87;2.33;;;;;;;;;;5113879;28;20488;-59
2023/11/11 11:49:19;;;;;;;3.00;2.80;;;;;;;;;;5114103;28;20536;-60
2023/11/11 11:51:52;;;;;;;3.53;3.23;;;;;;;;;;5114022;28;20441;-59
2023/11/11 11:54:19;;;;;;;3.00;2.70;;;;;;;;;;5114112;28;20936;-60
2023/11/11 11:56:46;;;;;;;2.80;2.60;;;;;;;;;;5113861;28;20820;-60
2023/11/11 11:59:15;;;;;;;3.43;2.27;;;;;;;;;;5113688;28;20449;-59
2023/11/11 12:01:42;;;;;;;3.00;2.70;;;;;;;;;;5113936;28;20452;-60
2023/11/11 12:04:09;;;;;;;4.13;2.87;;;;;;;;;;5113700;28;20940;-60
2023/11/11 12:06:39;;;;;;;4.40;2.67;;;;;;;;;;5113474;28;20623;-60
2023/11/11 12:09:09;;;;;;;2.73;2.53;;;;;;;;;;5113477;28;20449;-59
2023/11/11 12:11:37;;;;;;;3.27;2.53;;;;;;;;;;5113445;28;20441;-60
2023/11/11 12:14:05;;;;;;;6.07;4.23;;;;;;;;;;5113303;28;20445;-59
2023/11/11 12:16:38;;;;;;;4.97;3.87;;;;;;;;;;5113663;28;20564;-59
2023/11/11 12:19:12;;;;;;;5.43;3.33;;;;;;;;;;5113637;28;20438;-59
2023/11/11 12:21:42;;;;;;;3.03;2.80;;;;;;;;;;5113732;28;20445;-59
2023/11/11 12:24:12;;;;;;;4.97;2.83;;;;;;;;;;5113372;28;20528;-60
2023/11/11 12:26:39;;;;;;;2.87;2.67;;;;;;;;;;5113832;28;20560;-60
2023/11/11 12:29:06;;;;;;;7.30;3.00;;;;;;;;;;5113454;28;20479;-60
2023/11/11 12:31:32;;;;;;;5.97;2.53;;;;;;;;;;5113513;28;20546;-59
2023/11/11 12:34:00;;;;;;;3.53;2.73;;;;;;;;;;5113404;28;20448;-59
2023/11/11 12:36:28;;;;;;;4.30;3.00;;;;;;;;;;5113214;28;20702;-60
2023/11/11 12:39:05;;;;;;;3.33;2.47;;;;;;;;;;5113102;28;20532;-59
2023/11/11 12:41:34;;;;;;;4.20;2.90;;;;;;;;;;5113182;28;20481;-60
2023/11/11 12:44:04;;;;;;;3.93;2.20;;;;;;;;;;5113337;28;20557;-59
2023/11/11 12:46:31;;;;;;;2.77;2.57;;;;;;;;;;5113281;28;20841;-59
2023/11/11 12:48:58;;;;;;;4.17;2.50;;;;;;;;;;5113248;28;20484;-60
2023/11/11 12:51:28;;;;;;;2.67;2.23;;;;;;;;;;5113141;28;20556;-59
2023/11/11 12:53:56;;;;;;;4.23;2.80;;;;;;;;;;5113068;28;20936;-59
2023/11/11 12:56:23;;;;;;;3.20;2.90;;;;;;;;;;5113210;28;20445;-59
2023/11/11 12:59:04;;;;;;;3.50;2.97;;;;;;;;;;5113076;28;20441;-60
2023/11/11 13:01:31;;;;;;;2.57;2.10;;;;;;;;;;5113043;28;20442;-59
2023/11/11 13:04:02;;;;;;;2.10;2.00;;;;;;;;;;5113243;28;20525;-59
2023/11/11 13:06:32;;;;;;;2.90;2.70;;;;;;;;;;5113216;28;20481;-59
2023/11/11 13:08:59;;;;;;;4.30;2.93;;;;;;;;;;5113114;28;20510;-59
2023/11/11 13:11:26;;;;;;;3.17;2.87;;;;;;;;;;5113126;28;20929;-59
2023/11/11 13:13:55;;;;;;;2.50;2.30;;;;;;;;;;5112935;28;20473;-59
2023/11/11 13:16:22;;;;;;;3.73;2.33;;;;;;;;;;5112755;28;20438;-59
2023/11/11 13:18:49;;;;;;;3.03;2.53;;;;;;;;;;5113972;28;20529;-59
2023/11/11 13:21:16;;;;;;;2.83;2.37;;;;;;;;;;5116955;28;20993;-59
2023/11/11 13:23:43;;;;;;;3.27;2.30;;;;;;;;;;5116833;28;20445;-59
2023/11/11 13:26:10;;;;;;;2.97;2.50;;;;;;;;;;5116731;28;20544;-59
2023/11/11 13:28:38;;;;;;;1.90;1.70;;;;;;;;;;5116809;28;20441;-60
2023/11/11 13:31:07;;;;;;;4.37;2.53;;;;;;;;;;5116595;28;20667;-59
2023/11/11 13:33:35;;;;;;;2.60;1.97;;;;;;;;;;5116901;28;20782;-60
2023/11/11 13:36:09;;;;;;;6.27;2.33;;;;;;;;;;5116734;28;20445;-59
2023/11/11 13:38:36;;;;;;;3.03;2.80;;;;;;;;;;5116591;28;20438;-59
2023/11/11 13:41:04;;;;;;;3.43;2.13;;;;;;;;;;5116476;28;20474;-59
2023/11/11 13:43:31;;;;;;;3.53;2.13;;;;;;;;;;5116178;28;20465;-59
2023/11/11 13:45:58;;;;;;;2.70;2.50;;;;;;;;;;5116437;28;20481;-59
2023/11/11 13:48:26;;;;;;;2.77;2.57;;;;;;;;;;5116489;28;20441;-59
2023/11/11 13:50:53;;;;;;;2.90;2.50;;;;;;;;;;5116314;28;20889;-59
2023/11/11 13:53:20;;;;;;;4.07;2.90;;;;;;;;;;5116243;28;20445;-59
2023/11/11 13:55:47;;;;;;;3.50;3.30;;;;;;;;;;5116196;28;20961;-60
2023/11/11 13:58:15;;;;;;;3.27;2.97;;;;;;;;;;5116467;28;20448;-59
2023/11/11 14:00:42;;;;;;;12.90;11.70;;;;;;;;;;5116260;28;20520;-59
2023/11/11 14:03:10;;;;;;;2.77;2.57;;;;;;;;;;5116257;28;20538;-60
2023/11/11 14:05:39;;;;;;;3.83;3.43;;;;;;;;;;5115959;28;20500;-59
2023/11/11 14:08:07;;;;;;;5.00;2.50;;;;;;;;;;5116005;27;20480;-59
2023/11/11 14:10:35;;;;;;;2.97;2.63;;;;;;;;;;5115914;28;20794;-60
2023/11/11 14:13:02;;;;;;;3.23;2.60;;;;;;;;;;5116166;28;20449;-60
2023/11/11 14:15:38;;;;;;;8.20;3.70;;;;;;;;;;5115938;28;20469;-59
2023/11/11 14:18:05;;;;;;;3.73;2.63;;;;;;;;;;5115859;28;20445;-59
2023/11/11 14:20:33;;;;;;;7.70;5.97;;;;;;;;;;5115676;28;20446;-60
2023/11/11 14:23:01;;;;;;;5.23;4.57;;;;;;;;;;5115498;28;20533;-59
2023/11/11 14:25:28;;;;;;;10.57;5.90;;;;;;;;;;5115645;28;20496;-59
2023/11/11 14:27:55;;;;;;;18.93;7.80;;;;;;;;;;5115621;28;20442;-59
2023/11/11 14:30:22;;;;;;;9.33;6.93;;;;;;;;;;5115683;28;20448;-59
2023/11/11 14:32:49;;;;;;;6.40;5.67;;;;;;;;;;5115503;28;20528;-60
2023/11/11 14:35:17;;;;;;;9.50;7.67;;;;;;;;;;5115434;28;20441;-60
2023/11/11 14:37:44;;;;;;;7.80;6.93;;;;;;;;;;5115307;28;20449;-59
2023/11/11 14:40:15;;;;;;;6.70;4.83;;;;;;;;;;5115325;27;20445;-59
2023/11/11 14:42:42;;;;;;;6.80;5.60;;;;;;;;;;5115198;28;20473;-60
2023/11/11 14:45:10;;;;;;;5.43;3.13;;;;;;;;;;5115311;28;20977;-60
2023/11/11 14:47:37;;;;;;;8.17;6.10;;;;;;;;;;5115128;28;20474;-60